Time;durP1;ratioP1;P1;durP2;ratioP2;P2;SDS_P1;SDS_P2;PMS_P1;PMS_P2;Temp;Humidity;BMP_temperature;BMP_pressure;BME280_temperature;BME280_humidity;BME280_pressure;Samples;Min_cycle;Max_cycle;Signal;HPM_P1;HPM_P2
2022/03/15 00:01:17;;;;;;;0.70;0.65;;;;;;;;;;5062366;28;20692;-77
2022/03/15 00:03:44;;;;;;;0.70;0.60;;;;;;;;;;5061472;28;20197;-77
2022/03/15 00:06:11;;;;;;;0.80;0.80;;;;;;;;;;5058165;28;20218;-77
2022/03/15 00:08:40;;;;;;;0.60;0.60;;;;;;;;;;5059415;28;20269;-78
2022/03/15 00:11:07;;;;;;;0.70;0.60;;;;;;;;;;5056839;28;20594;-77
2022/03/15 00:13:35;;;;;;;0.70;0.70;;;;;;;;;;5053353;28;20319;-77
2022/03/15 00:16:03;;;;;;;0.70;0.70;;;;;;;;;;5055906;28;20228;-76
2022/03/15 00:18:32;;;;;;;0.77;0.77;;;;;;;;;;5055921;28;20276;-77
2022/03/15 00:20:59;;;;;;;0.70;0.70;;;;;;;;;;5058054;28;20221;-78
2022/03/15 00:23:26;;;;;;;0.70;0.60;;;;;;;;;;5057855;28;20188;-77
2022/03/15 00:25:55;;;;;;;0.70;0.60;;;;;;;;;;5056859;28;20226;-78
2022/03/15 00:28:24;;;;;;;0.70;0.60;;;;;;;;;;5073385;28;20198;-78
2022/03/15 00:30:52;;;;;;;0.70;0.60;;;;;;;;;;5073247;28;20189;-78
2022/03/15 00:33:19;;;;;;;0.70;0.70;;;;;;;;;;5055465;28;20223;-78
2022/03/15 00:35:51;;;;;;;0.70;0.60;;;;;;;;;;5040440;28;20201;-78
2022/03/15 00:38:17;;;;;;;0.70;0.70;;;;;;;;;;5039677;28;20712;-78
2022/03/15 00:40:44;;;;;;;0.70;0.60;;;;;;;;;;5056559;28;20292;-78
2022/03/15 00:43:15;;;;;;;0.70;0.60;;;;;;;;;;5056476;28;20197;-77
2022/03/15 00:45:42;;;;;;;0.70;0.65;;;;;;;;;;5056494;28;20192;-78
2022/03/15 00:48:11;;;;;;;0.70;0.70;;;;;;;;;;5057191;28;20586;-76
2022/03/15 00:50:41;;;;;;;0.70;0.60;;;;;;;;;;5055439;28;20689;-77
2022/03/15 00:53:09;;;;;;;0.70;0.60;;;;;;;;;;5054828;28;20255;-77
2022/03/15 00:55:37;;;;;;;0.65;0.60;;;;;;;;;;5039205;28;20622;-78
2022/03/15 00:58:05;;;;;;;0.70;0.60;;;;;;;;;;5055843;28;20200;-79
2022/03/15 01:00:35;;;;;;;0.70;0.60;;;;;;;;;;5055909;28;20227;-77
2022/03/15 01:03:06;;;;;;;0.70;0.68;;;;;;;;;;5054072;28;20635;-78
2022/03/15 01:05:33;;;;;;;0.70;0.63;;;;;;;;;;5055579;28;20646;-77
2022/03/15 01:07:59;;;;;;;0.70;0.70;;;;;;;;;;5056095;28;20190;-77
2022/03/15 01:10:27;;;;;;;0.60;0.60;;;;;;;;;;5057466;28;20196;-77
2022/03/15 01:12:53;;;;;;;0.70;0.63;;;;;;;;;;5053874;28;20892;-78
2022/03/15 01:15:21;;;;;;;0.70;0.70;;;;;;;;;;5055866;28;20247;-78
2022/03/15 01:17:49;;;;;;;0.70;0.60;;;;;;;;;;5055401;28;20202;-78
2022/03/15 01:20:19;;;;;;;0.70;0.70;;;;;;;;;;5055671;28;20178;-78
2022/03/15 01:22:45;;;;;;;0.68;0.60;;;;;;;;;;5054881;28;20229;-77
2022/03/15 01:25:15;;;;;;;0.70;0.68;;;;;;;;;;5054111;28;20292;-79
2022/03/15 01:27:42;;;;;;;0.70;0.60;;;;;;;;;;5053974;28;20189;-77
2022/03/15 01:30:09;;;;;;;1.38;1.27;;;;;;;;;;5054430;28;20201;-77
2022/03/15 01:32:36;;;;;;;0.70;0.70;;;;;;;;;;5054628;28;20190;-77
2022/03/15 01:35:05;;;;;;;0.70;0.60;;;;;;;;;;5056696;28;20582;-77
2022/03/15 01:37:35;;;;;;;0.70;0.70;;;;;;;;;;5054447;28;20214;-75
2022/03/15 01:40:09;;;;;;;0.70;0.70;;;;;;;;;;5037367;28;20200;-77
2022/03/15 01:42:36;;;;;;;0.60;0.60;;;;;;;;;;5033805;28;20198;-78
2022/03/15 01:45:04;;;;;;;0.70;0.70;;;;;;;;;;5044061;28;20206;-78
2022/03/15 01:47:32;;;;;;;0.70;0.60;;;;;;;;;;5052816;28;20678;-78
2022/03/15 01:50:01;;;;;;;0.70;0.60;;;;;;;;;;5053421;28;20197;-77
2022/03/15 01:52:29;;;;;;;0.70;0.60;;;;;;;;;;5052510;28;20213;-77
2022/03/15 01:54:56;;;;;;;0.70;0.70;;;;;;;;;;5053223;28;20615;-77
2022/03/15 01:57:24;;;;;;;0.80;0.80;;;;;;;;;;5052345;28;20234;-78
2022/03/15 01:59:53;;;;;;;0.70;0.60;;;;;;;;;;5052368;28;20193;-79
2022/03/15 02:02:23;;;;;;;0.70;0.70;;;;;;;;;;5037751;28;20666;-79
2022/03/15 02:04:51;;;;;;;0.70;0.60;;;;;;;;;;5052841;28;20216;-80
2022/03/15 02:07:19;;;;;;;0.70;0.70;;;;;;;;;;5051137;28;20603;-79
2022/03/15 02:09:49;;;;;;;0.65;0.60;;;;;;;;;;5036390;28;20606;-78
2022/03/15 02:12:17;;;;;;;0.70;0.60;;;;;;;;;;5053785;28;20194;-77
2022/03/15 02:14:45;;;;;;;0.70;0.60;;;;;;;;;;5050888;28;20194;-78
2022/03/15 02:17:16;;;;;;;0.80;0.80;;;;;;;;;;5052089;28;20201;-78
2022/03/15 02:19:44;;;;;;;0.90;0.90;;;;;;;;;;5052073;28;20178;-78
2022/03/15 02:22:16;;;;;;;0.70;0.60;;;;;;;;;;5052608;28;20210;-77
2022/03/15 02:24:44;;;;;;;0.70;0.70;;;;;;;;;;5053543;28;20189;-77
2022/03/15 02:27:11;;;;;;;0.70;0.63;;;;;;;;;;5053434;28;20185;-77
2022/03/15 02:29:39;;;;;;;0.90;0.90;;;;;;;;;;5050869;28;20271;-77
2022/03/15 02:32:11;;;;;;;0.70;0.60;;;;;;;;;;5053013;28;20177;-80
2022/03/15 02:34:45;;;;;;;0.70;0.70;;;;;;;;;;5052015;28;20193;-78
2022/03/15 02:37:16;;;;;;;0.70;0.70;;;;;;;;;;5054679;28;20205;-77
2022/03/15 02:39:58;;;;;;;0.70;0.70;;;;;;;;;;5053227;28;20676;-78
2022/03/15 02:42:25;;;;;;;0.70;0.70;;;;;;;;;;5052374;28;20194;-78
2022/03/15 02:44:54;;;;;;;0.70;0.70;;;;;;;;;;5052031;28;20665;-77
2022/03/15 02:47:28;;;;;;;0.70;0.60;;;;;;;;;;5052717;28;20192;-78
2022/03/15 02:49:59;;;;;;;0.70;0.60;;;;;;;;;;5051741;28;20608;-78
2022/03/15 02:52:26;;;;;;;0.70;0.70;;;;;;;;;;5053320;28;20244;-78
2022/03/15 02:54:53;;;;;;;0.80;0.80;;;;;;;;;;5053380;28;20174;-79
2022/03/15 02:57:23;;;;;;;0.70;0.70;;;;;;;;;;5036229;28;20308;-79
2022/03/15 02:59:51;;;;;;;0.70;0.70;;;;;;;;;;5050684;28;20276;-78
2022/03/15 03:06:04;;;;;;;0.70;0.60;;;;;;;;;;5054875;28;20546;-78
2022/03/15 03:08:32;;;;;;;0.80;0.80;;;;;;;;;;5054071;28;20288;-78
2022/03/15 03:11:01;;;;;;;0.70;0.68;;;;;;;;;;5053047;28;20194;-77
2022/03/15 03:13:30;;;;;;;0.70;0.70;;;;;;;;;;5052375;28;20693;-77
2022/03/15 03:15:58;;;;;;;0.70;0.70;;;;;;;;;;5053355;28;20190;-77
2022/03/15 03:18:27;;;;;;;0.70;0.63;;;;;;;;;;5055015;28;20249;-78
2022/03/15 03:20:54;;;;;;;0.70;0.60;;;;;;;;;;5053568;28;20235;-77
2022/03/15 03:23:21;;;;;;;0.70;0.60;;;;;;;;;;5052108;28;20240;-77
2022/03/15 03:25:48;;;;;;;0.70;0.63;;;;;;;;;;5053289;28;20304;-78
2022/03/15 03:28:14;;;;;;;0.70;0.70;;;;;;;;;;5051346;28;20685;-79
2022/03/15 03:30:47;;;;;;;0.70;0.60;;;;;;;;;;5035442;28;20210;-77
2022/03/15 03:33:14;;;;;;;0.70;0.70;;;;;;;;;;5052081;28;20259;-78
2022/03/15 03:35:40;;;;;;;0.70;0.60;;;;;;;;;;5051397;28;20186;-77
2022/03/15 03:38:07;;;;;;;0.70;0.70;;;;;;;;;;5052291;28;20755;-78
2022/03/15 03:40:34;;;;;;;0.70;0.70;;;;;;;;;;5053903;28;20178;-78
2022/03/15 03:43:01;;;;;;;0.70;0.60;;;;;;;;;;5072077;28;20193;-79
2022/03/15 03:45:28;;;;;;;0.70;0.70;;;;;;;;;;5055205;28;20589;-78
2022/03/15 03:47:56;;;;;;;0.70;0.60;;;;;;;;;;5055423;28;20190;-79
2022/03/15 03:50:23;;;;;;;0.70;0.60;;;;;;;;;;5055598;28;20231;-79
2022/03/15 03:52:49;;;;;;;0.70;0.60;;;;;;;;;;5055859;28;20697;-78
2022/03/15 03:55:16;;;;;;;0.65;0.60;;;;;;;;;;5055241;28;20193;-78
2022/03/15 03:57:42;;;;;;;0.70;0.60;;;;;;;;;;5055940;28;20201;-79
2022/03/15 04:00:10;;;;;;;0.70;0.60;;;;;;;;;;5055423;28;20236;-79
2022/03/15 04:02:39;;;;;;;0.70;0.60;;;;;;;;;;5056696;28;20194;-77
2022/03/15 04:05:08;;;;;;;0.70;0.60;;;;;;;;;;5047195;28;20204;-79
2022/03/15 04:07:35;;;;;;;0.70;0.60;;;;;;;;;;5055547;28;20255;-78
2022/03/15 04:10:05;;;;;;;0.70;0.60;;;;;;;;;;5054082;28;20211;-79
2022/03/15 04:12:32;;;;;;;0.70;0.70;;;;;;;;;;5050608;28;20735;-79
2022/03/15 04:15:00;;;;;;;0.70;0.60;;;;;;;;;;5051895;28;20195;-79
2022/03/15 04:17:27;;;;;;;0.70;0.60;;;;;;;;;;5036977;28;20257;-80
2022/03/15 04:19:53;;;;;;;0.70;0.60;;;;;;;;;;5055809;28;20213;-78
2022/03/15 04:22:21;;;;;;;0.70;0.60;;;;;;;;;;5055034;28;20209;-78
2022/03/15 04:24:48;;;;;;;0.70;0.60;;;;;;;;;;5055267;28;20209;-78
2022/03/15 04:27:16;;;;;;;0.70;0.60;;;;;;;;;;5054247;28;20627;-78
2022/03/15 04:29:42;;;;;;;0.70;0.60;;;;;;;;;;5052932;28;20201;-79
2022/03/15 04:32:09;;;;;;;0.70;0.63;;;;;;;;;;5054423;28;20181;-79
2022/03/15 04:34:36;;;;;;;0.70;0.60;;;;;;;;;;5055703;28;20198;-79
2022/03/15 04:37:04;;;;;;;0.70;0.60;;;;;;;;;;5055760;28;20201;-78
2022/03/15 04:39:33;;;;;;;0.70;0.70;;;;;;;;;;5055530;28;20231;-78
2022/03/15 04:42:00;;;;;;;0.70;0.60;;;;;;;;;;5046582;28;20232;-78
2022/03/15 04:44:26;;;;;;;0.70;0.60;;;;;;;;;;5051199;28;20186;-79
2022/03/15 04:46:53;;;;;;;1.00;1.00;;;;;;;;;;5047669;28;20181;-80
2022/03/15 04:49:20;;;;;;;0.70;0.65;;;;;;;;;;5054998;28;20189;-79
2022/03/15 04:51:46;;;;;;;0.70;0.70;;;;;;;;;;5053776;28;20732;-77
2022/03/15 04:54:14;;;;;;;0.70;0.70;;;;;;;;;;5053655;28;20174;-79
2022/03/15 04:56:42;;;;;;;0.70;0.60;;;;;;;;;;5054847;28;20492;-77
2022/03/15 04:59:09;;;;;;;0.77;0.73;;;;;;;;;;5054073;28;20593;-78
2022/03/15 05:01:36;;;;;;;0.70;0.70;;;;;;;;;;5055178;28;20220;-79
2022/03/15 05:04:03;;;;;;;0.70;0.60;;;;;;;;;;5053893;28;20186;-79
2022/03/15 05:06:30;;;;;;;0.70;0.60;;;;;;;;;;5053781;28;20202;-79
2022/03/15 05:08:57;;;;;;;0.70;0.60;;;;;;;;;;5053686;28;20193;-78
2022/03/15 05:11:27;;;;;;;0.70;0.60;;;;;;;;;;5052385;28;20189;-77
2022/03/15 05:13:56;;;;;;;0.70;0.60;;;;;;;;;;5054144;28;20658;-78
2022/03/15 05:16:41;;;;;;;0.70;0.60;;;;;;;;;;5053196;28;20187;-78
2022/03/15 05:19:08;;;;;;;0.70;0.60;;;;;;;;;;5051551;28;20209;-77
2022/03/15 05:21:35;;;;;;;1.15;1.05;;;;;;;;;;5052916;28;20288;-79
2022/03/15 05:24:02;;;;;;;0.70;0.60;;;;;;;;;;5033462;28;20194;-78
2022/03/15 05:26:30;;;;;;;0.70;0.70;;;;;;;;;;5045886;28;20189;-77
2022/03/15 05:28:59;;;;;;;0.75;0.70;;;;;;;;;;5066583;28;20867;-79
2022/03/15 05:31:28;;;;;;;0.70;0.60;;;;;;;;;;5051396;28;20194;-78
2022/03/15 05:33:56;;;;;;;0.70;0.70;;;;;;;;;;5052815;28;20210;-78
2022/03/15 05:36:23;;;;;;;0.70;0.70;;;;;;;;;;5051421;28;20300;-79
2022/03/15 05:38:50;;;;;;;1.10;1.00;;;;;;;;;;5068547;28;20200;-79
2022/03/15 05:41:16;;;;;;;0.70;0.70;;;;;;;;;;5068340;28;20225;-78
2022/03/15 05:43:52;;;;;;;0.70;0.70;;;;;;;;;;5035190;28;20232;-78
2022/03/15 05:46:21;;;;;;;0.70;0.70;;;;;;;;;;5033684;28;20212;-79
2022/03/15 05:48:48;;;;;;;0.73;0.70;;;;;;;;;;5033626;28;20186;-78
2022/03/15 05:51:15;;;;;;;0.70;0.70;;;;;;;;;;5049970;28;20227;-78
2022/03/15 05:53:42;;;;;;;0.70;0.60;;;;;;;;;;5054428;28;20585;-80
2022/03/15 05:56:08;;;;;;;0.70;0.60;;;;;;;;;;5053243;28;20189;-79
2022/03/15 05:58:36;;;;;;;0.70;0.60;;;;;;;;;;5067872;28;20206;-79
2022/03/15 06:01:02;;;;;;;0.70;0.70;;;;;;;;;;5052781;28;20201;-79
2022/03/15 06:03:31;;;;;;;0.70;0.60;;;;;;;;;;5051601;28;20654;-78
2022/03/15 06:05:58;;;;;;;0.70;0.60;;;;;;;;;;5053341;28;20217;-80
2022/03/15 06:08:25;;;;;;;0.70;0.60;;;;;;;;;;5052819;28;20205;-77
2022/03/15 06:10:52;;;;;;;0.70;0.60;;;;;;;;;;5051917;28;20225;-78
2022/03/15 06:13:19;;;;;;;0.70;0.60;;;;;;;;;;5054258;28;20192;-79
2022/03/15 06:15:45;;;;;;;0.70;0.60;;;;;;;;;;5034715;28;20190;-77
2022/03/15 06:18:12;;;;;;;0.70;0.60;;;;;;;;;;5068769;28;20259;-78
2022/03/15 06:20:40;;;;;;;0.70;0.60;;;;;;;;;;5052321;28;20586;-77
2022/03/15 06:23:08;;;;;;;1.40;1.30;;;;;;;;;;5051481;28;20198;-78
2022/03/15 06:25:35;;;;;;;0.70;0.60;;;;;;;;;;5035315;28;20193;-79
2022/03/15 06:28:01;;;;;;;0.70;0.60;;;;;;;;;;5052507;28;20228;-78
2022/03/15 06:30:28;;;;;;;0.70;0.60;;;;;;;;;;5051612;28;20705;-78
2022/03/15 06:32:55;;;;;;;0.70;0.60;;;;;;;;;;5052051;28;20230;-80
2022/03/15 06:35:23;;;;;;;0.70;0.60;;;;;;;;;;5052511;28;20204;-80
2022/03/15 06:37:51;;;;;;;0.70;0.70;;;;;;;;;;5052095;28;20254;-79
2022/03/15 06:40:22;;;;;;;0.70;0.60;;;;;;;;;;5052074;28;20237;-80
2022/03/15 06:42:50;;;;;;;0.70;0.70;;;;;;;;;;5051065;28;20228;-79
2022/03/15 06:45:17;;;;;;;0.70;0.63;;;;;;;;;;5069224;28;20177;-79
2022/03/15 06:47:45;;;;;;;0.70;0.70;;;;;;;;;;5053482;28;20196;-79
2022/03/15 06:50:12;;;;;;;0.80;0.70;;;;;;;;;;5051878;28;20213;-79
2022/03/15 06:52:40;;;;;;;0.70;0.60;;;;;;;;;;5052171;28;20690;-79
2022/03/15 06:55:10;;;;;;;0.70;0.60;;;;;;;;;;5052344;28;20253;-79
2022/03/15 06:57:37;;;;;;;0.70;0.60;;;;;;;;;;5052929;28;20193;-78
2022/03/15 07:00:04;;;;;;;0.70;0.60;;;;;;;;;;5053947;28;20436;-78
2022/03/15 07:02:31;;;;;;;0.70;0.70;;;;;;;;;;5051921;28;20213;-78
2022/03/15 07:04:58;;;;;;;0.70;0.60;;;;;;;;;;5052078;28;20201;-79
2022/03/15 07:07:25;;;;;;;0.70;0.60;;;;;;;;;;5053217;28;20435;-79
2022/03/15 07:09:52;;;;;;;0.70;0.60;;;;;;;;;;5053259;28;20787;-78
2022/03/15 07:12:20;;;;;;;0.70;0.60;;;;;;;;;;5050792;28;20968;-78
2022/03/15 07:14:49;;;;;;;0.70;0.70;;;;;;;;;;5068224;28;20777;-78
2022/03/15 07:17:16;;;;;;;0.70;0.60;;;;;;;;;;5054773;28;20931;-78
2022/03/15 07:19:43;;;;;;;0.70;0.60;;;;;;;;;;5054782;28;21003;-78
2022/03/15 07:22:10;;;;;;;0.70;0.67;;;;;;;;;;5042832;28;20919;-77
2022/03/15 07:24:37;;;;;;;0.70;0.60;;;;;;;;;;5055822;28;20436;-77
2022/03/15 07:27:03;;;;;;;0.70;0.60;;;;;;;;;;5056545;28;20485;-78
2022/03/15 07:29:32;;;;;;;0.70;0.60;;;;;;;;;;5071204;28;20507;-78
2022/03/15 07:31:59;;;;;;;0.70;0.60;;;;;;;;;;5072251;28;20436;-78
2022/03/15 07:34:26;;;;;;;0.70;0.60;;;;;;;;;;5056817;28;20439;-78
2022/03/15 07:36:52;;;;;;;0.70;0.60;;;;;;;;;;5056501;28;20534;-79
2022/03/15 07:39:20;;;;;;;0.70;0.60;;;;;;;;;;5056595;28;20463;-75
2022/03/15 07:41:48;;;;;;;0.70;0.60;;;;;;;;;;5056331;28;20442;-79
2022/03/15 07:44:14;;;;;;;0.70;0.60;;;;;;;;;;5054313;28;20856;-78
2022/03/15 07:46:48;;;;;;;0.70;0.60;;;;;;;;;;5056271;28;20524;-78
2022/03/15 07:49:16;;;;;;;0.70;0.60;;;;;;;;;;5071930;28;20422;-78
2022/03/15 07:51:43;;;;;;;0.70;0.60;;;;;;;;;;5054928;28;20487;-78
2022/03/15 07:54:10;;;;;;;0.70;0.70;;;;;;;;;;5038717;28;20546;-79
2022/03/15 07:56:38;;;;;;;0.70;0.60;;;;;;;;;;5035354;28;20949;-77
2022/03/15 07:59:05;;;;;;;0.70;0.60;;;;;;;;;;5042417;28;20987;-79
2022/03/15 08:01:31;;;;;;;0.70;0.60;;;;;;;;;;5054653;28;20958;-78
2022/03/15 08:04:00;;;;;;;0.70;0.60;;;;;;;;;;5055163;28;20432;-78
2022/03/15 08:06:30;;;;;;;0.70;0.60;;;;;;;;;;5054845;28;20959;-78
2022/03/15 08:08:58;;;;;;;0.70;0.60;;;;;;;;;;5057983;28;20921;-78
2022/03/15 08:11:26;;;;;;;1.67;1.57;;;;;;;;;;5053950;28;20501;-79
2022/03/15 08:13:53;;;;;;;0.70;0.60;;;;;;;;;;5056760;28;20424;-78
2022/03/15 08:16:23;;;;;;;0.70;0.60;;;;;;;;;;5055177;28;20420;-78
2022/03/15 08:18:52;;;;;;;0.70;0.60;;;;;;;;;;5071038;28;20503;-78
2022/03/15 08:21:21;;;;;;;0.70;0.60;;;;;;;;;;5054300;28;20456;-78
2022/03/15 08:23:48;;;;;;;0.70;0.60;;;;;;;;;;5070977;28;20482;-76
2022/03/15 08:26:15;;;;;;;0.70;0.60;;;;;;;;;;5052724;28;20972;-77
2022/03/15 08:28:45;;;;;;;0.70;0.60;;;;;;;;;;5054295;28;20436;-78
2022/03/15 08:31:15;;;;;;;0.70;0.60;;;;;;;;;;5054059;28;20448;-78
2022/03/15 08:33:44;;;;;;;0.70;0.60;;;;;;;;;;5070936;28;20447;-79
2022/03/15 08:36:11;;;;;;;0.70;0.60;;;;;;;;;;5055667;28;20471;-78
2022/03/15 08:38:40;;;;;;;0.70;0.60;;;;;;;;;;5070977;28;20474;-78
2022/03/15 08:41:07;;;;;;;0.70;0.60;;;;;;;;;;5055852;28;20482;-79
2022/03/15 08:43:33;;;;;;;0.70;0.60;;;;;;;;;;5053101;28;21018;-77
2022/03/15 08:46:00;;;;;;;0.70;0.60;;;;;;;;;;5053683;28;20445;-78
2022/03/15 08:48:27;;;;;;;0.70;0.50;;;;;;;;;;5054485;28;20548;-77
2022/03/15 08:50:54;;;;;;;0.70;0.60;;;;;;;;;;5054004;28;20448;-78
2022/03/15 08:53:21;;;;;;;0.70;0.50;;;;;;;;;;5037765;28;20442;-78
2022/03/15 08:55:49;;;;;;;0.70;0.60;;;;;;;;;;5055285;28;20523;-79
2022/03/15 08:58:16;;;;;;;0.70;0.60;;;;;;;;;;5037867;28;20440;-78
2022/03/15 09:00:43;;;;;;;0.70;0.60;;;;;;;;;;5037553;28;20503;-76
2022/03/15 09:03:10;;;;;;;2.63;2.20;;;;;;;;;;5037687;28;20483;-79
2022/03/15 09:05:38;;;;;;;0.70;0.60;;;;;;;;;;5054971;28;20519;-78
2022/03/15 09:08:04;;;;;;;0.70;0.70;;;;;;;;;;5053621;28;20957;-79
2022/03/15 09:10:31;;;;;;;0.70;0.60;;;;;;;;;;5053575;28;20516;-79
2022/03/15 09:13:03;;;;;;;0.70;0.60;;;;;;;;;;5043824;28;20444;-79
2022/03/15 09:15:30;;;;;;;0.70;0.60;;;;;;;;;;5053372;28;20435;-78
2022/03/15 09:17:57;;;;;;;0.70;0.60;;;;;;;;;;5053562;28;20476;-79
2022/03/15 09:20:25;;;;;;;0.70;0.60;;;;;;;;;;5053446;28;20524;-78
2022/03/15 09:22:51;;;;;;;0.70;0.60;;;;;;;;;;5053280;28;20522;-78
2022/03/15 09:25:21;;;;;;;0.70;0.60;;;;;;;;;;5053379;28;20448;-78
2022/03/15 09:27:48;;;;;;;0.60;0.50;;;;;;;;;;5070096;28;21550;-79
2022/03/15 09:30:17;;;;;;;0.70;0.60;;;;;;;;;;5053547;28;20488;-78
2022/03/15 09:32:44;;;;;;;0.70;0.67;;;;;;;;;;5069972;28;20446;-79
2022/03/15 09:35:13;;;;;;;0.70;0.60;;;;;;;;;;5054480;28;20433;-79
2022/03/15 09:37:45;;;;;;;0.70;0.60;;;;;;;;;;5053285;28;20466;-79
2022/03/15 09:40:13;;;;;;;0.70;0.70;;;;;;;;;;5052712;28;20463;-79
2022/03/15 09:42:40;;;;;;;0.70;0.60;;;;;;;;;;5051866;28;20457;-79
2022/03/15 09:45:07;;;;;;;0.70;0.60;;;;;;;;;;5052936;28;20956;-79
2022/03/15 09:47:36;;;;;;;0.70;0.60;;;;;;;;;;5051741;28;20440;-78
2022/03/15 09:50:03;;;;;;;0.70;0.70;;;;;;;;;;5054051;28;20417;-79
2022/03/15 09:52:30;;;;;;;0.70;0.50;;;;;;;;;;5055812;28;20492;-78
2022/03/15 09:54:57;;;;;;;0.70;0.60;;;;;;;;;;5053152;28;20451;-77
2022/03/15 09:57:26;;;;;;;1.77;1.13;;;;;;;;;;5053115;28;20837;-78
2022/03/15 09:59:57;;;;;;;0.70;0.60;;;;;;;;;;5052685;28;20517;-79
2022/03/15 10:02:24;;;;;;;0.70;0.60;;;;;;;;;;5054216;28;20480;-78
2022/03/15 10:04:54;;;;;;;0.70;0.60;;;;;;;;;;5053761;28;20923;-79
2022/03/15 10:07:21;;;;;;;0.70;0.60;;;;;;;;;;5052371;28;20477;-79
2022/03/15 10:09:48;;;;;;;0.73;0.67;;;;;;;;;;5052845;28;20795;-79
2022/03/15 10:12:15;;;;;;;0.70;0.60;;;;;;;;;;5034506;28;20455;-79
2022/03/15 10:14:43;;;;;;;0.70;0.70;;;;;;;;;;5054178;28;20496;-80
2022/03/15 10:17:12;;;;;;;0.70;0.60;;;;;;;;;;5052808;28;20478;-78
2022/03/15 10:19:48;;;;;;;0.70;0.60;;;;;;;;;;5051450;28;20463;-76
2022/03/15 10:22:19;;;;;;;0.70;0.60;;;;;;;;;;5069099;28;20584;-79
2022/03/15 10:24:46;;;;;;;0.70;0.70;;;;;;;;;;5053611;28;20505;-78
2022/03/15 10:27:14;;;;;;;0.77;0.70;;;;;;;;;;5051699;28;20452;-78
2022/03/15 10:29:42;;;;;;;0.70;0.60;;;;;;;;;;5068640;28;20432;-79
2022/03/15 10:32:10;;;;;;;0.70;0.60;;;;;;;;;;5053553;28;20429;-79
2022/03/15 10:34:37;;;;;;;0.70;0.60;;;;;;;;;;5051365;28;20453;-79
2022/03/15 10:37:04;;;;;;;0.70;0.60;;;;;;;;;;5052590;28;20443;-78
2022/03/15 10:39:32;;;;;;;0.70;0.60;;;;;;;;;;5053877;28;20462;-77
2022/03/15 10:42:00;;;;;;;0.70;0.70;;;;;;;;;;5051429;28;20454;-79
2022/03/15 10:44:28;;;;;;;0.70;0.60;;;;;;;;;;5052343;28;20429;-78
2022/03/15 10:46:59;;;;;;;0.70;0.60;;;;;;;;;;5051968;28;20426;-79
2022/03/15 10:49:26;;;;;;;0.70;0.50;;;;;;;;;;5053965;28;20831;-80
2022/03/15 10:51:56;;;;;;;0.70;0.60;;;;;;;;;;5039771;28;20470;-79
2022/03/15 10:54:23;;;;;;;0.70;0.60;;;;;;;;;;5055961;28;20968;-78
2022/03/15 10:56:55;;;;;;;0.70;0.60;;;;;;;;;;5056331;28;20511;-78
2022/03/15 10:59:22;;;;;;;0.70;0.60;;;;;;;;;;5056058;28;20543;-78
2022/03/15 11:01:51;;;;;;;0.70;0.60;;;;;;;;;;5055353;28;20428;-78
2022/03/15 11:04:18;;;;;;;0.70;0.60;;;;;;;;;;5041326;28;20457;-79
2022/03/15 11:06:46;;;;;;;0.70;0.60;;;;;;;;;;5057308;28;20454;-79
2022/03/15 11:09:20;;;;;;;0.70;0.60;;;;;;;;;;5057232;28;20409;-78
2022/03/15 11:12:02;;;;;;;0.70;0.60;;;;;;;;;;5039183;28;20539;-77
2022/03/15 11:14:40;;;;;;;0.70;0.60;;;;;;;;;;5059236;28;20443;-77
2022/03/15 11:17:11;;;;;;;0.70;0.70;;;;;;;;;;5079941;28;20425;-76
2022/03/15 11:19:40;;;;;;;0.70;0.60;;;;;;;;;;5081158;28;20447;-75
2022/03/15 11:22:08;;;;;;;0.70;0.57;;;;;;;;;;5061875;28;20466;-75
2022/03/15 11:24:38;;;;;;;0.70;0.60;;;;;;;;;;5059340;28;20554;-76
2022/03/15 11:27:08;;;;;;;0.70;0.60;;;;;;;;;;5056532;28;20418;-76
2022/03/15 11:29:37;;;;;;;0.70;0.60;;;;;;;;;;5070901;28;20466;-76
2022/03/15 11:32:05;;;;;;;0.70;0.60;;;;;;;;;;5071668;28;20427;-75
2022/03/15 11:34:33;;;;;;;0.70;0.60;;;;;;;;;;5071799;28;20470;-74
2022/03/15 11:37:00;;;;;;;0.80;0.70;;;;;;;;;;5056176;28;20443;-73
2022/03/15 11:39:29;;;;;;;0.70;0.60;;;;;;;;;;5056105;28;20463;-74
2022/03/15 11:41:57;;;;;;;0.70;0.70;;;;;;;;;;5053694;28;20513;-74
2022/03/15 11:44:30;;;;;;;0.70;0.60;;;;;;;;;;5069767;28;20453;-73
2022/03/15 11:47:01;;;;;;;0.70;0.63;;;;;;;;;;5071541;28;20482;-74
2022/03/15 11:49:31;;;;;;;0.70;0.60;;;;;;;;;;5055483;28;20443;-73
2022/03/15 11:52:05;;;;;;;0.70;0.60;;;;;;;;;;5056128;28;20448;-73
2022/03/15 11:54:39;;;;;;;1.43;1.33;;;;;;;;;;5055924;28;20467;-72
2022/03/15 11:57:10;;;;;;;0.70;0.60;;;;;;;;;;5055813;28;20454;-73
2022/03/15 11:59:47;;;;;;;0.70;0.60;;;;;;;;;;5054499;28;20558;-73
2022/03/15 12:02:13;;;;;;;0.70;0.60;;;;;;;;;;5053394;28;20434;-72
2022/03/15 12:04:44;;;;;;;0.70;0.60;;;;;;;;;;5054421;28;20519;-71
2022/03/15 12:07:13;;;;;;;0.70;0.60;;;;;;;;;;5055732;28;20447;-71
2022/03/15 12:09:45;;;;;;;0.70;0.60;;;;;;;;;;5054326;28;20436;-72
2022/03/15 12:12:15;;;;;;;0.70;0.60;;;;;;;;;;5052624;28;20440;-72
2022/03/15 12:14:44;;;;;;;0.70;0.63;;;;;;;;;;5054198;28;20536;-72
2022/03/15 12:17:12;;;;;;;0.77;0.77;;;;;;;;;;5054410;28;20519;-72
2022/03/15 12:19:44;;;;;;;0.70;0.60;;;;;;;;;;5070552;28;20455;-72
2022/03/15 12:22:21;;;;;;;0.70;0.60;;;;;;;;;;5054097;28;20551;-72
2022/03/15 12:24:59;;;;;;;0.67;0.60;;;;;;;;;;5055409;28;20407;-72
2022/03/15 12:27:47;;;;;;;0.70;0.60;;;;;;;;;;5054295;28;20420;-71
2022/03/15 12:30:26;;;;;;;0.70;0.60;;;;;;;;;;5052892;28;20540;-73
2022/03/15 12:32:55;;;;;;;0.70;0.60;;;;;;;;;;5054086;28;20512;-73
2022/03/15 12:35:22;;;;;;;0.70;0.50;;;;;;;;;;5055128;28;20759;-70
2022/03/15 12:37:49;;;;;;;0.70;0.60;;;;;;;;;;5053982;28;20535;-72
2022/03/15 12:40:16;;;;;;;0.70;0.50;;;;;;;;;;5037803;28;20496;-73
2022/03/15 12:42:52;;;;;;;0.70;0.50;;;;;;;;;;5052965;28;20453;-73
2022/03/15 12:45:20;;;;;;;0.70;0.60;;;;;;;;;;5054673;28;20419;-72
2022/03/15 12:47:47;;;;;;;0.70;0.60;;;;;;;;;;5055105;28;20424;-72
2022/03/15 12:50:21;;;;;;;0.70;0.50;;;;;;;;;;5054561;28;20430;-72
2022/03/15 12:52:51;;;;;;;0.70;0.60;;;;;;;;;;5053190;28;20459;-72
2022/03/15 12:55:19;;;;;;;0.70;0.60;;;;;;;;;;5053665;28;20432;-71
2022/03/15 12:57:47;;;;;;;0.70;0.57;;;;;;;;;;5052912;28;20432;-71
2022/03/15 13:00:14;;;;;;;0.70;0.60;;;;;;;;;;5054478;28;20464;-72
2022/03/15 13:02:41;;;;;;;0.60;0.60;;;;;;;;;;5054814;28;20418;-71
2022/03/15 13:05:11;;;;;;;0.70;0.60;;;;;;;;;;5054916;28;20535;-72
2022/03/15 13:07:42;;;;;;;0.70;0.60;;;;;;;;;;5053311;28;20457;-72
2022/03/15 13:10:14;;;;;;;0.70;0.60;;;;;;;;;;5037258;28;20547;-72
2022/03/15 13:12:43;;;;;;;0.70;0.60;;;;;;;;;;5052872;28;20447;-73
2022/03/15 13:15:16;;;;;;;0.70;0.60;;;;;;;;;;5053012;28;20449;-72
2022/03/15 13:17:46;;;;;;;0.80;0.80;;;;;;;;;;5054621;28;20418;-72
2022/03/15 13:20:21;;;;;;;0.70;0.60;;;;;;;;;;5054381;28;20881;-74
2022/03/15 13:22:56;;;;;;;0.70;0.60;;;;;;;;;;5054444;28;20495;-72
2022/03/15 13:25:34;;;;;;;0.70;0.60;;;;;;;;;;5069850;28;20531;-72
2022/03/15 13:28:06;;;;;;;0.70;0.50;;;;;;;;;;5053988;28;20417;-73
2022/03/15 13:30:38;;;;;;;0.60;0.50;;;;;;;;;;5035540;28;20448;-72
2022/03/15 13:33:08;;;;;;;0.70;0.60;;;;;;;;;;5052898;28;20443;-72
2022/03/15 13:35:35;;;;;;;0.67;0.60;;;;;;;;;;5064615;28;20571;-72
2022/03/15 13:38:14;;;;;;;0.70;0.50;;;;;;;;;;5051606;28;20527;-73
2022/03/15 13:40:43;;;;;;;0.70;0.60;;;;;;;;;;5055989;28;20463;-72
2022/03/15 13:43:12;;;;;;;0.70;0.60;;;;;;;;;;5053407;28;20438;-73
2022/03/15 13:45:39;;;;;;;0.70;0.60;;;;;;;;;;5050119;28;20467;-72
2022/03/15 13:48:05;;;;;;;0.70;0.60;;;;;;;;;;5078459;28;20474;-72
2022/03/15 13:50:32;;;;;;;0.70;0.60;;;;;;;;;;5058596;28;20959;-72
2022/03/15 13:52:59;;;;;;;0.70;0.60;;;;;;;;;;5059024;28;20439;-72
2022/03/15 13:55:28;;;;;;;0.70;0.60;;;;;;;;;;5053809;28;20973;-71
2022/03/15 13:57:56;;;;;;;0.70;0.60;;;;;;;;;;5052453;28;20441;-72
2022/03/15 14:00:28;;;;;;;0.80;0.70;;;;;;;;;;5051260;28;20456;-73
2022/03/15 14:02:56;;;;;;;0.70;0.63;;;;;;;;;;5051652;28;20950;-71
2022/03/15 14:05:27;;;;;;;0.70;0.60;;;;;;;;;;5052043;28;20454;-74
2022/03/15 14:08:01;;;;;;;0.70;0.60;;;;;;;;;;5053317;28;20462;-75
2022/03/15 14:10:32;;;;;;;0.70;0.60;;;;;;;;;;5053086;28;20598;-73
2022/03/15 14:13:01;;;;;;;0.70;0.70;;;;;;;;;;5052217;28;20443;-72
2022/03/15 14:15:33;;;;;;;0.70;0.70;;;;;;;;;;5053042;28;20451;-74
2022/03/15 14:17:59;;;;;;;0.70;0.60;;;;;;;;;;5053848;28;20455;-73
2022/03/15 14:20:41;;;;;;;0.70;0.60;;;;;;;;;;5051456;28;20982;-73
2022/03/15 14:23:10;;;;;;;0.70;0.60;;;;;;;;;;5053426;28;20412;-74
2022/03/15 14:25:43;;;;;;;0.70;0.50;;;;;;;;;;5067053;28;20443;-75
2022/03/15 14:28:10;;;;;;;0.70;0.60;;;;;;;;;;5053406;28;20473;-74
2022/03/15 14:30:38;;;;;;;0.70;0.60;;;;;;;;;;5051614;28;20440;-73
2022/03/15 14:33:07;;;;;;;0.70;0.60;;;;;;;;;;5051585;28;20466;-73
2022/03/15 14:35:38;;;;;;;0.70;0.60;;;;;;;;;;5052037;28;20450;-75
2022/03/15 14:38:10;;;;;;;0.70;0.60;;;;;;;;;;5051963;28;20423;-75
2022/03/15 14:40:40;;;;;;;0.70;0.60;;;;;;;;;;5051665;28;20470;-75
2022/03/15 14:43:08;;;;;;;0.70;0.60;;;;;;;;;;5053108;28;20431;-74
2022/03/15 14:45:35;;;;;;;0.70;0.60;;;;;;;;;;5050557;28;20452;-73
2022/03/15 14:48:06;;;;;;;0.70;0.53;;;;;;;;;;5053296;28;20439;-73
2022/03/15 14:50:33;;;;;;;0.70;0.60;;;;;;;;;;5051909;28;20428;-73
2022/03/15 14:53:01;;;;;;;0.70;0.60;;;;;;;;;;5052425;28;20444;-76
2022/03/15 14:55:33;;;;;;;0.70;0.50;;;;;;;;;;5052861;28;20453;-75